Time;durP1;ratioP1;P1;durP2;ratioP2;P2;SDS_P1;SDS_P2;PMS_P1;PMS_P2;Temp;Humidity;BMP_temperature;BMP_pressure;BME280_temperature;BME280_humidity;BME280_pressure;Samples;Min_cycle;Max_cycle;Signal;HPM_P1;HPM_P2
2021/01/25 00:02:01;;;;;;;7.63;4.43;;;0.60;99.90;;;;;;5031325;28;20206;-59
2021/01/25 00:04:28;;;;;;;7.03;3.80;;;0.70;99.90;;;;;;5030802;28;20206;-58
2021/01/25 00:06:54;;;;;;;6.23;3.57;;;0.80;99.90;;;;;;5030942;28;20296;-59
2021/01/25 00:09:20;;;;;;;10.87;4.17;;;0.80;99.90;;;;;;5030800;28;20293;-60
2021/01/25 00:11:47;;;;;;;7.13;3.87;;;0.90;99.90;;;;;;5030878;28;20217;-59
2021/01/25 00:14:13;;;;;;;4.83;3.60;;;0.90;99.90;;;;;;5030701;28;20210;-59
2021/01/25 00:16:39;;;;;;;5.73;3.53;;;1.10;99.90;;;;;;5030722;28;20202;-58
2021/01/25 00:19:05;;;;;;;6.87;4.10;;;1.10;99.90;;;;;;5030779;28;20627;-58
2021/01/25 00:21:32;;;;;;;8.40;3.90;;;1.00;99.90;;;;;;5030871;28;20272;-57
2021/01/25 00:23:59;;;;;;;7.27;4.07;;;1.10;99.90;;;;;;5031198;28;20214;-58
2021/01/25 00:26:25;;;;;;;4.10;3.30;;;1.10;99.90;;;;;;5037144;28;20308;-61
2021/01/25 00:28:51;;;;;;;4.97;3.83;;;1.10;99.90;;;;;;5037158;28;20685;-58
2021/01/25 00:31:17;;;;;;;5.90;3.77;;;1.20;99.90;;;;;;5037636;28;20209;-60
2021/01/25 00:33:43;;;;;;;7.37;3.83;;;1.20;99.90;;;;;;5037355;28;20206;-62
2021/01/25 00:36:10;;;;;;;7.53;3.80;;;1.20;99.90;;;;;;5037434;28;20202;-59
2021/01/25 00:38:37;;;;;;;6.37;3.93;;;1.20;99.90;;;;;;5037181;28;20237;-60
2021/01/25 00:41:03;;;;;;;6.93;4.10;;;1.30;99.90;;;;;;5037277;28;20693;-58
2021/01/25 00:43:29;;;;;;;5.00;3.40;;;1.30;99.90;;;;;;5037074;28;20275;-59
2021/01/25 00:45:55;;;;;;;6.53;3.70;;;1.20;99.90;;;;;;5037401;28;20226;-59
2021/01/25 00:48:21;;;;;;;4.70;3.43;;;1.10;99.90;;;;;;5037087;28;20253;-59
2021/01/25 00:50:48;;;;;;;4.33;3.47;;;1.10;99.90;;;;;;5037252;28;20579;-60
2021/01/25 00:53:14;;;;;;;4.27;3.30;;;1.10;99.90;;;;;;5037230;28;20674;-60
2021/01/25 00:55:41;;;;;;;5.50;3.20;;;1.00;99.90;;;;;;5037177;28;20202;-59
2021/01/25 00:58:07;;;;;;;5.10;3.23;;;0.90;99.90;;;;;;5037306;28;20233;-59
2021/01/25 01:00:33;;;;;;;5.77;3.53;;;0.90;99.90;;;;;;5037544;28;20593;-60
2021/01/25 01:02:59;;;;;;;5.90;3.73;;;0.80;99.90;;;;;;5037313;28;20256;-60
2021/01/25 01:05:25;;;;;;;5.43;3.33;;;0.80;99.90;;;;;;5036992;28;20222;-60
2021/01/25 01:07:51;;;;;;;5.83;3.57;;;0.80;99.90;;;;;;5036917;28;20233;-61
2021/01/25 01:10:18;;;;;;;4.30;3.23;;;1.00;99.90;;;;;;5036988;28;20260;-58
2021/01/25 01:12:45;;;;;;;7.13;3.60;;;1.00;99.90;;;;;;5036889;28;20288;-59
2021/01/25 01:15:13;;;;;;;5.23;3.47;;;1.00;99.90;;;;;;5036967;28;20225;-59
2021/01/25 01:17:40;;;;;;;5.10;3.20;;;1.00;99.90;;;;;;5036963;28;20263;-59
2021/01/25 01:20:07;;;;;;;4.73;3.10;;;1.10;99.90;;;;;;5037020;28;20674;-59
2021/01/25 01:22:33;;;;;;;5.07;3.27;;;1.10;99.90;;;;;;5036922;28;20202;-60
2021/01/25 01:25:00;;;;;;;6.40;3.60;;;1.10;99.90;;;;;;5036460;28;20210;-60
2021/01/25 01:27:26;;;;;;;4.90;3.30;;;1.20;99.90;;;;;;5036706;28;20234;-59
2021/01/25 01:29:53;;;;;;;5.60;3.67;;;1.40;99.90;;;;;;5036936;28;20213;-59
2021/01/25 01:32:19;;;;;;;5.07;3.63;;;1.60;99.90;;;;;;5037035;28;20485;-59
2021/01/25 01:34:46;;;;;;;5.80;3.27;;;1.70;99.90;;;;;;5036987;28;20225;-60
2021/01/25 01:37:12;;;;;;;4.90;3.30;;;1.80;99.90;;;;;;5032771;28;20249;-59
2021/01/25 01:39:38;;;;;;;4.10;2.80;;;1.90;99.90;;;;;;5033383;28;20206;-59
2021/01/25 01:42:05;;;;;;;6.73;3.40;;;2.00;99.90;;;;;;5033757;28;20229;-59
2021/01/25 01:44:31;;;;;;;5.33;3.07;;;2.00;99.90;;;;;;5033487;28;20203;-59
2021/01/25 01:46:59;;;;;;;4.03;2.70;;;2.00;99.90;;;;;;5033744;28;20230;-59
2021/01/25 01:49:25;;;;;;;6.90;2.87;;;2.10;99.90;;;;;;5033460;28;20589;-59
2021/01/25 01:51:52;;;;;;;5.00;3.20;;;1.90;99.90;;;;;;5033810;28;20210;-60
2021/01/25 01:54:19;;;;;;;4.17;2.60;;;1.80;99.90;;;;;;5033164;28;20206;-60
2021/01/25 01:56:46;;;;;;;3.70;2.50;;;1.60;99.90;;;;;;5033422;28;20229;-60
2021/01/25 01:59:12;;;;;;;3.70;2.70;;;1.50;99.90;;;;;;5033450;28;20583;-60
2021/01/25 02:01:38;;;;;;;4.13;3.20;;;1.30;99.90;;;;;;5033481;28;20206;-59
2021/01/25 02:04:05;;;;;;;4.27;2.70;;;1.20;99.90;;;;;;5033148;28;20202;-60
2021/01/25 02:06:33;;;;;;;4.97;2.80;;;1.00;99.90;;;;;;5033220;28;20249;-60
2021/01/25 02:09:03;;;;;;;3.87;3.03;;;0.90;99.90;;;;;;5033140;28;20260;-60
2021/01/25 02:11:30;;;;;;;6.70;3.20;;;0.90;99.90;;;;;;5033499;28;20210;-60
2021/01/25 02:13:57;;;;;;;6.77;3.33;;;0.80;99.90;;;;;;5033263;28;20682;-60
2021/01/25 02:16:23;;;;;;;6.50;3.37;;;0.70;99.90;;;;;;5033382;28;20203;-60
2021/01/25 02:18:49;;;;;;;3.70;2.90;;;0.60;99.90;;;;;;5033103;28;20226;-60
2021/01/25 02:21:18;;;;;;;7.03;3.40;;;0.50;99.90;;;;;;5035630;28;20206;-59
2021/01/25 02:23:58;;;;;;;5.83;3.57;;;0.30;99.90;;;;;;5034173;28;20206;-60
2021/01/25 02:26:34;;;;;;;5.80;3.67;;;0.30;99.90;;;;;;5032980;28;20229;-60
2021/01/25 02:29:03;;;;;;;6.30;3.00;;;0.30;99.90;;;;;;5032785;28;20206;-60
2021/01/25 02:31:31;;;;;;;4.80;3.33;;;0.20;99.90;;;;;;5032773;28;20203;-60
2021/01/25 02:33:59;;;;;;;4.97;2.60;;;0.20;99.90;;;;;;5032439;28;20211;-60
2021/01/25 02:36:26;;;;;;;3.67;2.60;;;0.30;99.90;;;;;;5032713;28;20453;-59
2021/01/25 02:38:53;;;;;;;5.10;2.83;;;0.50;99.90;;;;;;5032596;28;20210;-60
2021/01/25 02:41:25;;;;;;;4.73;2.70;;;0.60;99.90;;;;;;5032571;28;20213;-60
2021/01/25 02:43:52;;;;;;;7.20;3.17;;;0.60;99.90;;;;;;5032289;28;20214;-60
2021/01/25 02:46:21;;;;;;;5.37;2.90;;;0.70;99.90;;;;;;5032198;28;20225;-60
2021/01/25 02:48:47;;;;;;;5.33;2.63;;;0.80;99.90;;;;;;5032107;28;20226;-60
2021/01/25 02:51:14;;;;;;;4.90;3.03;;;0.80;99.90;;;;;;5032583;28;20218;-60
2021/01/25 02:53:40;;;;;;;5.47;3.33;;;0.90;99.90;;;;;;5032245;28;20206;-60
2021/01/25 02:56:07;;;;;;;5.20;2.63;;;0.90;99.90;;;;;;5032214;28;20202;-60
2021/01/25 02:58:34;;;;;;;6.77;3.13;;;0.90;99.90;;;;;;5032080;28;20222;-61
2021/01/25 03:01:01;;;;;;;4.20;3.00;;;0.90;99.90;;;;;;5032471;28;20596;-60
2021/01/25 03:03:30;;;;;;;3.83;2.60;;;0.90;99.90;;;;;;5032186;28;20218;-60
2021/01/25 03:05:56;;;;;;;3.90;2.40;;;0.90;99.90;;;;;;5032291;28;20222;-60
2021/01/25 03:08:23;;;;;;;4.27;2.57;;;1.00;99.90;;;;;;5032225;28;20325;-60
2021/01/25 03:10:49;;;;;;;4.03;2.40;;;1.00;99.90;;;;;;5032267;28;20256;-60
2021/01/25 03:13:15;;;;;;;3.53;2.47;;;1.00;99.90;;;;;;5032607;28;20210;-60
2021/01/25 03:15:45;;;;;;;4.67;2.60;;;1.00;99.90;;;;;;5031888;28;20586;-60
2021/01/25 03:18:11;;;;;;;6.23;2.43;;;1.00;99.90;;;;;;5032003;28;20233;-60
2021/01/25 03:20:38;;;;;;;6.70;2.60;;;1.10;99.90;;;;;;5031985;28;20214;-61
2021/01/25 03:23:04;;;;;;;4.83;3.00;;;1.10;99.90;;;;;;5032040;28;20594;-60
2021/01/25 03:25:30;;;;;;;5.90;2.80;;;1.10;99.90;;;;;;5031670;28;20213;-60
2021/01/25 03:27:56;;;;;;;4.30;2.33;;;1.00;99.90;;;;;;5032009;28;20234;-59
2021/01/25 03:30:23;;;;;;;4.40;2.57;;;1.10;99.90;;;;;;5032017;28;20210;-60
2021/01/25 03:32:49;;;;;;;5.10;2.47;;;1.20;99.90;;;;;;5031871;28;20736;-59
2021/01/25 03:35:15;;;;;;;4.17;2.53;;;1.20;99.90;;;;;;5031743;28;20210;-59
2021/01/25 03:37:42;;;;;;;7.63;2.70;;;1.30;99.90;;;;;;5031672;28;20222;-59
2021/01/25 03:40:09;;;;;;;4.20;2.57;;;1.30;99.90;;;;;;5032278;28;20213;-59
2021/01/25 03:42:36;;;;;;;5.43;3.50;;;1.30;99.90;;;;;;5031770;28;20206;-59
2021/01/25 03:45:03;;;;;;;4.23;3.17;;;1.30;99.90;;;;;;5031487;28;20624;-59
2021/01/25 03:47:29;;;;;;;5.53;3.23;;;1.50;99.90;;;;;;5031592;28;20237;-59
2021/01/25 03:49:55;;;;;;;7.00;3.60;;;1.50;99.90;;;;;;5031936;28;20693;-59
2021/01/25 03:52:22;;;;;;;5.13;3.77;;;1.50;99.90;;;;;;5031733;28;20210;-59
2021/01/25 03:54:49;;;;;;;4.50;3.23;;;1.60;99.90;;;;;;5031196;28;20221;-59
2021/01/25 03:57:15;;;;;;;4.90;3.30;;;1.70;99.90;;;;;;5030965;28;20226;-60
2021/01/25 03:59:41;;;;;;;4.80;3.33;;;1.80;99.90;;;;;;5030578;28;20213;-59
2021/01/25 04:02:07;;;;;;;6.17;3.40;;;1.90;99.90;;;;;;5031157;28;20207;-60
2021/01/25 04:04:33;;;;;;;4.47;3.17;;;1.90;99.90;;;;;;5030954;28;20210;-59
2021/01/25 04:07:00;;;;;;;6.00;3.27;;;1.90;99.90;;;;;;5031566;28;20234;-59
2021/01/25 04:09:26;;;;;;;4.60;3.27;;;2.00;99.90;;;;;;5030927;28;20206;-59
2021/01/25 04:11:53;;;;;;;4.57;3.10;;;1.90;99.90;;;;;;5030933;28;20209;-60
2021/01/25 04:14:19;;;;;;;4.93;3.23;;;1.90;99.90;;;;;;5031239;28;20449;-59
2021/01/25 04:16:46;;;;;;;4.33;3.50;;;1.90;99.90;;;;;;5030998;28;20230;-60
2021/01/25 04:19:12;;;;;;;4.23;3.47;;;1.70;99.90;;;;;;5031092;28;20206;-60
2021/01/25 04:21:40;;;;;;;6.47;3.50;;;1.70;99.90;;;;;;5030956;28;20629;-60
2021/01/25 04:24:07;;;;;;;5.23;3.80;;;1.70;99.90;;;;;;5030508;28;20601;-60
2021/01/25 04:26:33;;;;;;;7.53;3.50;;;1.60;99.90;;;;;;5030767;28;20675;-60
2021/01/25 04:29:00;;;;;;;5.10;3.90;;;1.40;99.90;;;;;;5030877;28;20213;-59
2021/01/25 04:31:27;;;;;;;5.00;4.17;;;1.40;99.90;;;;;;5030989;28;20300;-60
2021/01/25 04:33:53;;;;;;;5.00;3.97;;;1.40;99.90;;;;;;5030576;28;20210;-61
2021/01/25 04:36:21;;;;;;;4.70;3.83;;;1.40;99.90;;;;;;5030741;28;20210;-60
2021/01/25 04:38:47;;;;;;;8.70;4.57;;;1.30;99.90;;;;;;5030461;28;20396;-59
2021/01/25 04:41:13;;;;;;;7.27;3.90;;;1.10;99.90;;;;;;5030882;28;20221;-60
2021/01/25 04:43:40;;;;;;;6.30;4.37;;;1.10;99.90;;;;;;5030694;28;20206;-60
2021/01/25 04:46:07;;;;;;;6.67;4.23;;;1.20;99.90;;;;;;5030777;28;20222;-59
2021/01/25 04:48:36;;;;;;;5.60;4.27;;;1.20;99.90;;;;;;5030572;28;20299;-60
2021/01/25 04:51:02;;;;;;;8.53;5.50;;;1.20;99.90;;;;;;5030685;28;20339;-60
2021/01/25 04:53:29;;;;;;;6.30;4.60;;;1.20;99.90;;;;;;5030603;28;20206;-60
2021/01/25 04:55:56;;;;;;;7.60;5.30;;;1.20;99.90;;;;;;5030864;28;20204;-60
2021/01/25 04:58:23;;;;;;;8.70;5.27;;;1.30;99.90;;;;;;5030352;28;20714;-60
2021/01/25 05:00:49;;;;;;;5.87;4.93;;;1.30;99.90;;;;;;5030601;28;20210;-59
2021/01/25 05:03:16;;;;;;;7.73;5.57;;;1.30;99.90;;;;;;5030586;28;20206;-60
2021/01/25 05:05:42;;;;;;;6.47;5.53;;;1.30;99.90;;;;;;5030242;28;20578;-59
2021/01/25 05:08:09;;;;;;;7.37;5.07;;;1.40;99.90;;;;;;5030192;28;20253;-59
2021/01/25 05:10:35;;;;;;;7.63;5.60;;;1.30;99.90;;;;;;5031387;28;20213;-59
2021/01/25 05:13:01;;;;;;;7.53;5.60;;;1.30;99.90;;;;;;5034232;28;20213;-59
2021/01/25 05:15:29;;;;;;;7.80;5.90;;;1.20;99.90;;;;;;5034177;28;20384;-60
2021/01/25 05:17:57;;;;;;;7.87;5.67;;;1.10;99.90;;;;;;5033970;28;20233;-60
2021/01/25 05:20:26;;;;;;;8.53;5.53;;;1.20;99.90;;;;;;5034064;28;20797;-59
2021/01/25 05:22:52;;;;;;;7.93;5.67;;;1.30;99.90;;;;;;5034459;28;20203;-60
2021/01/25 05:25:28;;;;;;;9.67;6.10;;;1.20;99.90;;;;;;5033971;28;20210;-59
2021/01/25 05:27:54;;;;;;;8.83;5.70;;;1.20;99.90;;;;;;5033461;28;20280;-60
2021/01/25 05:30:21;;;;;;;7.97;5.80;;;1.20;99.90;;;;;;5034128;28;20210;-59
2021/01/25 05:32:49;;;;;;;8.23;5.37;;;1.20;99.90;;;;;;5033819;28;20206;-60
2021/01/25 05:35:17;;;;;;;9.13;5.70;;;1.20;99.90;;;;;;5033539;28;20217;-59
2021/01/25 05:37:50;;;;;;;8.67;5.43;;;1.10;99.90;;;;;;5033703;28;20222;-60
2021/01/25 05:40:16;;;;;;;6.87;5.27;;;1.20;99.90;;;;;;5033681;28;20297;-60
2021/01/25 05:42:43;;;;;;;7.60;5.30;;;1.10;99.90;;;;;;5033686;28;20206;-60
2021/01/25 05:45:10;;;;;;;8.27;5.40;;;1.10;99.90;;;;;;5033403;28;20670;-60
2021/01/25 05:47:44;;;;;;;8.33;5.60;;;1.00;99.90;;;;;;5033294;28;20230;-59
2021/01/25 05:50:12;;;;;;;7.60;5.07;;;1.00;99.90;;;;;;5033618;28;20285;-59
2021/01/25 05:52:42;;;;;;;7.93;5.40;;;1.10;99.90;;;;;;5033796;28;20211;-59
2021/01/25 05:55:11;;;;;;;8.47;5.80;;;1.10;99.90;;;;;;5033373;28;20210;-60
2021/01/25 05:57:37;;;;;;;8.40;5.63;;;1.10;99.90;;;;;;5033549;28;20223;-60
2021/01/25 06:00:05;;;;;;;7.73;5.77;;;1.10;99.90;;;;;;5033147;28;20206;-60
2021/01/25 06:02:35;;;;;;;7.17;6.20;;;1.20;99.90;;;;;;5033564;28;20238;-60
2021/01/25 06:05:01;;;;;;;8.47;6.00;;;1.30;99.90;;;;;;5033229;28;20214;-60
2021/01/25 06:07:29;;;;;;;7.70;5.77;;;1.30;99.90;;;;;;5033354;28;20255;-59
2021/01/25 06:09:56;;;;;;;8.13;6.37;;;1.30;99.90;;;;;;5033260;28;20202;-60
2021/01/25 06:12:29;;;;;;;10.30;6.47;;;1.40;99.90;;;;;;5033175;28;20217;-60
2021/01/25 06:15:02;;;;;;;8.47;6.73;;;1.40;99.90;;;;;;5033334;28;20644;-59
2021/01/25 06:17:32;;;;;;;8.67;6.40;;;1.50;99.90;;;;;;5033312;28;20268;-60
2021/01/25 06:20:01;;;;;;;8.50;6.63;;;1.50;99.90;;;;;;5033289;28;20218;-59
2021/01/25 06:22:27;;;;;;;8.77;6.00;;;1.50;99.90;;;;;;5032174;28;20202;-61
2021/01/25 06:24:53;;;;;;;7.40;6.60;;;1.50;99.90;;;;;;5032822;28;20209;-60
2021/01/25 06:27:25;;;;;;;9.23;6.00;;;1.50;99.90;;;;;;5032900;28;20238;-60
2021/01/25 06:29:52;;;;;;;10.30;6.57;;;1.40;99.90;;;;;;5032827;28;20230;-59
2021/01/25 06:32:19;;;;;;;7.33;6.10;;;1.50;99.90;;;;;;5032975;28;20215;-58
2021/01/25 06:34:45;;;;;;;7.97;6.00;;;1.50;99.90;;;;;;5032835;28;20221;-60
2021/01/25 06:37:14;;;;;;;10.77;6.80;;;1.40;99.90;;;;;;5032750;28;20272;-59
2021/01/25 06:39:44;;;;;;;8.17;6.80;;;1.40;99.90;;;;;;5032284;28;20210;-60
2021/01/25 06:42:15;;;;;;;8.87;6.50;;;1.50;99.90;;;;;;5032501;28;20713;-59
2021/01/25 06:44:44;;;;;;;10.37;7.63;;;1.60;99.90;;;;;;5032512;28;20314;-59
2021/01/25 06:47:15;;;;;;;10.00;7.27;;;1.50;99.90;;;;;;5032528;28;20230;-61
2021/01/25 06:49:43;;;;;;;8.43;7.30;;;1.60;99.90;;;;;;5032318;28;20210;-59
2021/01/25 06:52:09;;;;;;;8.37;6.50;;;1.60;99.90;;;;;;5032267;28;20210;-60
2021/01/25 06:54:42;;;;;;;11.03;8.37;;;1.70;99.90;;;;;;5032482;28;20585;-59
2021/01/25 06:57:08;;;;;;;10.93;7.70;;;1.70;99.90;;;;;;5032250;28;20702;-59
2021/01/25 06:59:38;;;;;;;11.77;9.17;;;1.90;99.90;;;;;;5032124;28;20202;-59
2021/01/25 07:02:08;;;;;;;7.70;6.90;;;1.90;99.90;;;;;;5032203;28;20256;-59
2021/01/25 07:04:44;;;;;;;9.50;7.10;;;2.00;99.90;;;;;;5032789;28;20297;-59
2021/01/25 07:07:21;;;;;;;12.30;8.53;;;2.00;99.90;;;;;;5032992;28;20321;-59
2021/01/25 07:09:48;;;;;;;8.60;7.00;;;2.00;99.90;;;;;;5032620;28;20205;-59
2021/01/25 07:12:14;;;;;;;8.63;6.53;;;2.00;99.90;;;;;;5032437;28;20210;-59
2021/01/25 07:14:40;;;;;;;8.87;7.33;;;1.90;99.90;;;;;;5032358;28;20301;-59
2021/01/25 07:17:07;;;;;;;9.17;7.33;;;1.90;99.90;;;;;;5032458;28;20249;-59
2021/01/25 07:19:34;;;;;;;10.90;7.63;;;2.00;99.90;;;;;;5032442;28;20210;-59
2021/01/25 07:22:01;;;;;;;10.33;7.67;;;2.10;99.90;;;;;;5032678;28;20202;-60
2021/01/25 07:24:28;;;;;;;9.57;7.63;;;2.20;99.90;;;;;;5032223;28;20248;-59
2021/01/25 07:26:55;;;;;;;13.43;8.77;;;2.40;99.90;;;;;;5031663;28;20579;-60
2021/01/25 07:29:23;;;;;;;9.93;7.80;;;2.50;99.90;;;;;;5031872;28;20209;-59
2021/01/25 07:31:50;;;;;;;10.37;8.07;;;2.60;99.90;;;;;;5032009;28;20206;-59
2021/01/25 07:34:18;;;;;;;8.50;7.37;;;2.70;99.90;;;;;;5031153;28;20210;-59
2021/01/25 07:36:44;;;;;;;9.50;8.30;;;2.80;99.90;;;;;;5031711;28;20202;-59
2021/01/25 07:39:12;;;;;;;8.27;6.73;;;2.90;99.90;;;;;;5031443;28;20229;-59
2021/01/25 07:41:39;;;;;;;9.17;7.30;;;3.00;99.90;;;;;;5031280;28;20568;-58
2021/01/25 07:44:07;;;;;;;10.30;7.20;;;3.10;99.90;;;;;;5031156;28;20268;-58
2021/01/25 07:46:34;;;;;;;11.50;8.27;;;3.10;99.90;;;;;;5031330;28;20716;-59
2021/01/25 07:49:00;;;;;;;10.23;8.27;;;3.10;99.90;;;;;;5031529;28;20254;-59
2021/01/25 07:51:29;;;;;;;9.90;7.77;;;3.20;99.90;;;;;;5031486;28;20209;-59
2021/01/25 07:53:57;;;;;;;9.43;7.50;;;3.30;99.90;;;;;;5031218;28;20210;-59
2021/01/25 07:56:24;;;;;;;10.83;6.93;;;3.30;99.90;;;;;;5031453;28;20213;-59
2021/01/25 07:59:02;;;;;;;8.63;7.17;;;3.40;99.90;;;;;;5031223;28;20313;-59
2021/01/25 08:01:32;;;;;;;9.37;7.27;;;3.40;99.90;;;;;;5031370;28;20205;-60
2021/01/25 08:04:02;;;;;;;9.87;7.50;;;3.50;99.90;;;;;;5031211;28;20564;-59
2021/01/25 08:06:32;;;;;;;9.17;7.87;;;3.60;99.90;;;;;;5031615;28;20218;-59
2021/01/25 08:09:00;;;;;;;8.10;7.30;;;3.60;99.90;;;;;;5031304;28;20207;-59
2021/01/25 08:11:26;;;;;;;9.47;7.00;;;3.90;99.90;;;;;;5031318;28;20229;-60
2021/01/25 08:14:02;;;;;;;8.93;6.73;;;3.80;99.90;;;;;;5030862;28;20210;-60
2021/01/25 08:16:34;;;;;;;9.40;7.50;;;3.90;99.90;;;;;;5031102;28;20209;-59
2021/01/25 08:19:06;;;;;;;9.80;7.37;;;3.90;99.90;;;;;;5031233;28;20210;-60
2021/01/25 08:21:37;;;;;;;11.70;7.10;;;4.00;99.90;;;;;;5031635;28;20210;-60
2021/01/25 08:24:07;;;;;;;10.23;7.77;;;4.00;99.90;;;;;;5031265;28;20210;-60
2021/01/25 08:26:34;;;;;;;8.33;6.73;;;4.10;99.90;;;;;;5031027;28;20226;-59
2021/01/25 08:29:04;;;;;;;8.57;6.53;;;4.00;99.90;;;;;;5031065;28;20202;-60
2021/01/25 08:31:33;;;;;;;9.30;6.53;;;4.00;99.90;;;;;;5031164;28;20643;-59
2021/01/25 08:34:02;;;;;;;7.57;6.47;;;4.10;99.90;;;;;;5031078;28;20206;-59
2021/01/25 08:36:32;;;;;;;10.77;7.30;;;4.00;99.90;;;;;;5031391;28;20202;-59
2021/01/25 08:39:08;;;;;;;11.57;8.73;;;3.90;99.90;;;;;;5031103;28;20213;-59
2021/01/25 08:41:35;;;;;;;9.60;6.73;;;3.90;99.90;;;;;;5033384;28;20206;-59
2021/01/25 08:44:10;;;;;;;9.03;6.63;;;4.00;99.90;;;;;;5032401;28;20213;-60
2021/01/25 08:46:39;;;;;;;8.87;7.47;;;4.10;99.90;;;;;;5037718;28;20232;-59
2021/01/25 08:49:15;;;;;;;10.27;8.13;;;4.20;99.90;;;;;;5035603;28;20264;-60
2021/01/25 08:51:42;;;;;;;9.00;7.23;;;4.20;99.90;;;;;;5034912;28;20245;-59
2021/01/25 08:54:18;;;;;;;10.50;7.60;;;4.20;99.90;;;;;;5034563;28;20642;-60
2021/01/25 08:56:45;;;;;;;13.57;7.50;;;4.20;99.90;;;;;;5034596;28;20256;-60
2021/01/25 08:59:14;;;;;;;12.33;8.87;;;4.30;99.90;;;;;;5034603;28;20213;-60
2021/01/25 09:01:42;;;;;;;9.23;7.60;;;4.20;99.90;;;;;;5034497;28;20813;-60
2021/01/25 09:04:09;;;;;;;10.70;7.80;;;4.30;99.90;;;;;;5034717;28;20202;-60
2021/01/25 09:06:47;;;;;;;11.13;8.23;;;4.30;99.90;;;;;;5034773;28;20222;-60
2021/01/25 09:09:13;;;;;;;9.10;7.77;;;4.40;99.90;;;;;;5034321;28;20210;-61
2021/01/25 09:11:39;;;;;;;11.33;8.33;;;4.50;99.90;;;;;;5034415;28;20236;-59
2021/01/25 09:14:05;;;;;;;9.43;7.23;;;4.60;99.90;;;;;;5034230;28;20232;-60
2021/01/25 09:16:32;;;;;;;10.63;8.30;;;4.70;99.90;;;;;;5034535;28;20240;-58
2021/01/25 09:18:59;;;;;;;9.90;8.00;;;4.90;99.90;;;;;;5035025;28;20202;-59
2021/01/25 09:21:25;;;;;;;10.70;8.70;;;4.90;99.90;;;;;;5034611;28;20203;-62
2021/01/25 09:23:51;;;;;;;11.20;8.23;;;5.10;99.90;;;;;;5034252;28;20268;-62
2021/01/25 09:26:17;;;;;;;11.73;8.53;;;5.20;99.90;;;;;;5033846;28;20229;-61
2021/01/25 09:28:43;;;;;;;9.27;7.27;;;5.40;99.90;;;;;;5034323;28;20238;-64
2021/01/25 09:31:09;;;;;;;8.83;7.43;;;5.50;99.90;;;;;;5034371;28;20209;-62
2021/01/25 09:33:36;;;;;;;10.40;8.80;;;5.70;99.90;;;;;;5034241;28;20260;-61
2021/01/25 09:36:04;;;;;;;9.97;7.70;;;5.80;99.90;;;;;;5034302;28;20213;-61
2021/01/25 09:38:30;;;;;;;7.93;7.10;;;6.10;99.90;;;;;;5033898;28;20713;-61
2021/01/25 09:40:56;;;;;;;7.53;6.23;;;6.20;99.90;;;;;;5033968;28;20218;-61
2021/01/25 09:43:23;;;;;;;6.80;5.50;;;6.40;99.90;;;;;;5034727;28;20214;-61
2021/01/25 09:45:50;;;;;;;7.40;5.60;;;6.60;99.90;;;;;;5034244;28;20321;-61
2021/01/25 09:48:16;;;;;;;8.00;5.17;;;6.80;99.90;;;;;;5033764;28;20234;-61
2021/01/25 09:50:47;;;;;;;8.70;7.40;;;6.80;99.90;;;;;;5033849;28;20210;-61
2021/01/25 09:53:13;;;;;;;8.93;7.10;;;6.90;99.90;;;;;;5033853;28;20302;-61
2021/01/25 09:55:40;;;;;;;11.77;7.60;;;6.90;99.90;;;;;;5033581;28;20202;-61
2021/01/25 09:58:06;;;;;;;13.47;9.83;;;7.00;99.90;;;;;;5032261;28;20226;-61
2021/01/25 10:00:32;;;;;;;12.37;10.13;;;7.10;99.90;;;;;;5033660;28;20613;-61
2021/01/25 10:02:58;;;;;;;16.77;9.87;;;7.30;99.90;;;;;;5033437;28;20213;-61
2021/01/25 10:05:24;;;;;;;11.57;8.93;;;7.50;99.90;;;;;;5033130;28;20740;-61
2021/01/25 10:07:51;;;;;;;13.27;8.30;;;7.50;99.90;;;;;;5033078;28;20230;-61
2021/01/25 10:10:18;;;;;;;12.13;7.40;;;7.50;99.90;;;;;;5033601;28;20233;-61
2021/01/25 10:12:44;;;;;;;15.03;7.40;;;7.50;99.90;;;;;;5033252;28;20339;-61
2021/01/25 10:15:13;;;;;;;9.77;7.33;;;7.50;99.90;;;;;;5033083;28;20206;-61
2021/01/25 10:17:39;;;;;;;9.03;6.93;;;7.50;99.90;;;;;;5032731;28;20650;-61
2021/01/25 10:20:07;;;;;;;13.20;7.80;;;7.50;99.90;;;;;;5032879;28;20256;-61
2021/01/25 10:22:33;;;;;;;11.23;8.80;;;7.40;99.90;;;;;;5032792;28;20217;-61
2021/01/25 10:25:00;;;;;;;13.70;7.03;;;7.30;99.90;;;;;;5032803;28;20210;-61
2021/01/25 10:27:26;;;;;;;13.40;7.60;;;7.30;99.90;;;;;;5032745;28;20622;-61
2021/01/25 10:29:52;;;;;;;13.60;7.53;;;7.20;99.90;;;;;;5032889;28;20252;-60
2021/01/25 10:32:21;;;;;;;13.37;7.50;;;7.30;99.90;;;;;;5032870;28;20202;-60
2021/01/25 10:34:47;;;;;;;11.10;6.73;;;7.20;99.90;;;;;;5032600;28;20293;-60
2021/01/25 10:37:13;;;;;;;12.47;6.67;;;7.20;99.90;;;;;;5032480;28;20292;-60
2021/01/25 10:39:39;;;;;;;11.63;7.07;;;7.30;99.90;;;;;;5032813;28;20233;-60
2021/01/25 10:42:07;;;;;;;16.00;9.20;;;7.40;99.90;;;;;;5032562;28;20213;-61
2021/01/25 10:44:33;;;;;;;12.07;8.17;;;7.40;99.90;;;;;;5032725;28;20211;-61
2021/01/25 10:46:59;;;;;;;10.10;7.40;;;7.50;99.90;;;;;;5032794;28;20238;-61
2021/01/25 10:49:25;;;;;;;8.47;6.03;;;7.50;99.90;;;;;;5032341;28;20213;-61
2021/01/25 10:51:51;;;;;;;6.70;6.00;;;7.60;99.90;;;;;;5032286;28;20364;-61
2021/01/25 10:54:22;;;;;;;6.53;4.53;;;7.70;99.90;;;;;;5032229;28;20213;-61
2021/01/25 10:56:49;;;;;;;5.63;4.97;;;7.70;99.90;;;;;;5032296;28;20222;-61
2021/01/25 10:59:16;;;;;;;6.70;5.17;;;7.90;99.90;;;;;;5032196;28;20222;-61
2021/01/25 11:01:42;;;;;;;6.00;4.80;;;7.90;99.90;;;;;;5032604;28;20210;-61
2021/01/25 11:04:08;;;;;;;5.60;4.73;;;8.00;99.90;;;;;;5031780;28;20217;-61
2021/01/25 11:06:34;;;;;;;5.17;4.67;;;8.00;99.90;;;;;;5032211;28;20229;-61
2021/01/25 11:09:01;;;;;;;6.10;4.87;;;8.10;99.90;;;;;;5031867;28;20202;-61
2021/01/25 11:11:27;;;;;;;7.80;5.27;;;8.20;99.90;;;;;;5032017;28;20260;-61
2021/01/25 11:13:53;;;;;;;5.93;5.10;;;8.40;99.90;;;;;;5031825;28;20210;-61
2021/01/25 11:16:20;;;;;;;7.83;5.30;;;8.80;99.90;;;;;;5031831;28;20213;-61
2021/01/25 11:18:48;;;;;;;6.00;4.20;;;9.30;99.90;;;;;;5031485;28;20599;-61
2021/01/25 11:21:14;;;;;;;5.60;4.00;;;9.70;99.90;;;;;;5031608;28;20458;-61
2021/01/25 11:23:40;;;;;;;7.23;4.90;;;10.00;99.60;;;;;;5031652;28;20233;-61
2021/01/25 11:26:06;;;;;;;4.80;3.80;;;10.10;98.90;;;;;;5031738;28;20207;-61
2021/01/25 11:28:32;;;;;;;6.10;4.67;;;10.10;98.40;;;;;;5031119;28;20642;-61
2021/01/25 11:30:58;;;;;;;7.83;4.60;;;10.00;98.50;;;;;;5031672;28;20203;-61
2021/01/25 11:33:26;;;;;;;5.67;4.60;;;10.00;98.60;;;;;;5031185;28;20206;-61
2021/01/25 11:35:52;;;;;;;15.00;9.63;;;9.90;99.00;;;;;;5031623;28;20217;-61
2021/01/25 11:38:18;;;;;;;7.53;5.50;;;9.80;99.10;;;;;;5031588;28;20226;-61
2021/01/25 11:40:44;;;;;;;6.30;4.90;;;9.80;99.00;;;;;;5031589;28;20206;-61
2021/01/25 11:43:10;;;;;;;8.37;5.20;;;9.70;99.00;;;;;;5031483;28;20370;-60
2021/01/25 11:45:38;;;;;;;7.10;6.10;;;9.60;99.30;;;;;;5031142;28;20206;-61
2021/01/25 11:48:05;;;;;;;10.30;5.33;;;9.50;99.40;;;;;;5030820;28;20229;-61
2021/01/25 11:50:32;;;;;;;9.07;5.40;;;9.50;99.20;;;;;;5031147;28;20733;-61
2021/01/25 11:52:58;;;;;;;10.37;4.97;;;9.50;99.50;;;;;;5031399;28;20217;-61
2021/01/25 11:55:25;;;;;;;7.80;4.30;;;9.50;99.40;;;;;;5031177;28;20214;-62
2021/01/25 11:57:51;;;;;;;7.03;4.13;;;9.50;99.20;;;;;;5030773;28;20787;-61
2021/01/25 12:00:18;;;;;;;6.93;4.50;;;9.50;99.40;;;;;;5030956;28;20206;-61
2021/01/25 12:02:44;;;;;;;6.60;4.40;;;9.50;99.40;;;;;;5030942;28;20618;-61
2021/01/25 12:05:11;;;;;;;5.73;4.37;;;9.40;99.10;;;;;;5030975;28;20206;-61
2021/01/25 12:07:39;;;;;;;5.77;4.10;;;9.50;99.30;;;;;;5030876;28;20226;-61
2021/01/25 12:10:06;;;;;;;7.37;5.20;;;9.40;99.30;;;;;;5031048;28;20454;-60
2021/01/25 12:12:32;;;;;;;16.30;9.87;;;9.40;99.30;;;;;;5030939;28;20210;-60
2021/01/25 12:14:58;;;;;;;6.90;5.30;;;9.40;99.40;;;;;;5031200;28;20582;-62
2021/01/25 12:17:24;;;;;;;8.07;5.23;;;9.30;99.50;;;;;;5050956;28;20251;-60
2021/01/25 12:19:51;;;;;;;8.33;5.00;;;9.30;99.50;;;;;;5050595;28;20221;-60
2021/01/25 12:22:17;;;;;;;9.03;4.37;;;9.10;99.90;;;;;;5050664;28;20259;-59
2021/01/25 12:24:44;;;;;;;5.87;3.63;;;9.10;99.70;;;;;;5050649;28;20202;-59
2021/01/25 12:27:10;;;;;;;4.40;3.13;;;9.00;99.70;;;;;;5050550;28;20230;-59
2021/01/25 12:29:36;;;;;;;5.33;3.30;;;9.00;99.90;;;;;;5050765;28;20210;-59
2021/01/25 12:32:03;;;;;;;4.27;2.90;;;9.10;99.80;;;;;;5050704;28;20210;-59
2021/01/25 12:34:29;;;;;;;5.63;3.17;;;9.10;99.80;;;;;;5050394;28;20212;-59
2021/01/25 12:36:55;;;;;;;3.50;2.83;;;9.00;99.80;;;;;;5050451;28;20789;-60
2021/01/25 12:39:22;;;;;;;3.13;2.10;;;8.90;99.90;;;;;;5050557;28;20291;-60
2021/01/25 12:41:49;;;;;;;4.10;2.40;;;8.90;99.90;;;;;;5050391;28;20247;-60
2021/01/25 12:44:15;;;;;;;4.43;2.33;;;8.80;99.90;;;;;;5050092;28;20205;-59
2021/01/25 12:46:43;;;;;;;2.33;1.80;;;8.80;99.90;;;;;;5050454;28;20303;-59
2021/01/25 12:49:11;;;;;;;4.40;1.60;;;8.80;99.90;;;;;;5050583;28;20205;-60
2021/01/25 12:51:37;;;;;;;5.23;3.50;;;8.80;99.80;;;;;;5050357;28;20627;-59
2021/01/25 12:54:04;;;;;;;3.80;2.40;;;9.00;99.90;;;;;;5050293;28;20650;-60
2021/01/25 12:56:30;;;;;;;5.57;3.17;;;9.20;99.80;;;;;;5050295;28;20618;-60